Time;durP1;ratioP1;P1;durP2;ratioP2;P2;SDS_P1;SDS_P2;PMS_P1;PMS_P2;Temp;Humidity;BMP_temperature;BMP_pressure;BME280_temperature;BME280_humidity;BME280_pressure;Samples;Min_cycle;Max_cycle;Signal;HPM_P1;HPM_P2
2023/12/01 13:25:43;;;;;;;17.42;6.43;;;1.80;99.90;;;;;;5130294;27;1254123;-67
2023/12/01 13:28:09;;;;;;;17.25;6.40;;;2.80;99.90;;;;;;5150814;27;20020;-69
2023/12/01 13:30:35;;;;;;;16.90;5.72;;;3.00;99.90;;;;;;5150426;27;20026;-64
2023/12/01 13:33:01;;;;;;;19.38;6.30;;;3.10;99.90;;;;;;5150801;28;20031;-64
2023/12/01 13:35:27;;;;;;;15.68;6.13;;;3.00;99.90;;;;;;5150735;28;20054;-65
2023/12/01 13:37:53;;;;;;;14.27;5.30;;;2.90;99.90;;;;;;5150734;27;20019;-64
2023/12/01 13:40:20;;;;;;;18.70;6.53;;;2.80;99.90;;;;;;5150678;28;20037;-64
2023/12/01 13:42:45;;;;;;;17.10;6.47;;;2.70;99.90;;;;;;5150668;27;20433;-65
2023/12/01 13:45:11;;;;;;;16.92;5.93;;;2.70;99.90;;;;;;5150557;28;20028;-65
2023/12/01 13:47:39;;;;;;;20.20;6.53;;;2.70;99.90;;;;;;5150654;27;20045;-65
2023/12/01 13:50:07;;;;;;;19.30;6.05;;;2.70;99.90;;;;;;5150329;27;20019;-65
2023/12/01 13:52:36;;;;;;;16.58;5.45;;;2.70;99.90;;;;;;5150503;27;20045;-65
2023/12/01 13:55:03;;;;;;;16.38;6.53;;;2.60;99.90;;;;;;5150459;27;20078;-64
2023/12/01 13:57:29;;;;;;;21.05;5.65;;;2.60;99.90;;;;;;5137185;27;20027;-64
2023/12/01 13:59:55;;;;;;;13.85;5.70;;;2.60;99.90;;;;;;5129608;28;20030;-64
2023/12/01 14:02:21;;;;;;;22.08;6.68;;;2.60;99.90;;;;;;5129868;28;20055;-64
2023/12/01 14:04:47;;;;;;;14.98;5.85;;;2.60;99.90;;;;;;5129637;28;20032;-64
2023/12/01 14:07:12;;;;;;;17.83;5.95;;;2.60;99.90;;;;;;5129748;28;20028;-65
2023/12/01 14:09:38;;;;;;;12.38;5.30;;;2.60;99.90;;;;;;5128703;28;20022;-64
2023/12/01 14:12:04;;;;;;;15.43;6.07;;;2.50;99.90;;;;;;5128704;28;20028;-65
2023/12/01 14:14:30;;;;;;;14.88;5.90;;;2.50;99.90;;;;;;5129572;28;20034;-64
2023/12/01 14:16:56;;;;;;;18.98;5.95;;;2.50;99.90;;;;;;5129503;28;20048;-65
2023/12/01 14:19:23;;;;;;;12.52;4.60;;;2.40;99.90;;;;;;5129416;28;20579;-65
2023/12/01 14:21:49;;;;;;;13.60;5.10;;;2.40;99.80;;;;;;5109535;28;20031;-64
2023/12/01 14:24:16;;;;;;;12.63;5.75;;;2.30;99.90;;;;;;5108574;28;20044;-64
2023/12/01 14:26:43;;;;;;;15.38;5.18;;;2.30;99.60;;;;;;5108923;28;20016;-64
2023/12/01 14:29:09;;;;;;;17.27;5.95;;;2.30;99.70;;;;;;5108646;28;20080;-64
2023/12/01 14:31:36;;;;;;;14.50;6.10;;;2.30;99.70;;;;;;5108798;28;20021;-64
2023/12/01 14:34:03;;;;;;;14.32;5.25;;;2.20;99.70;;;;;;5108766;28;20020;-64
2023/12/01 14:36:29;;;;;;;16.70;5.75;;;2.20;99.80;;;;;;5098663;28;20016;-64
2023/12/01 14:38:55;;;;;;;13.95;5.25;;;2.20;99.90;;;;;;5095162;28;20028;-65
2023/12/01 14:41:20;;;;;;;15.90;6.25;;;2.20;99.90;;;;;;5095056;28;20037;-64
2023/12/01 14:43:46;;;;;;;15.52;5.35;;;2.10;99.90;;;;;;5094845;28;20040;-65
2023/12/01 14:46:12;;;;;;;15.85;4.88;;;2.10;99.90;;;;;;5114146;28;20031;-65
2023/12/01 14:48:38;;;;;;;11.15;4.50;;;2.10;99.90;;;;;;5115282;28;20045;-64
2023/12/01 14:51:04;;;;;;;16.08;5.07;;;2.00;99.60;;;;;;5114148;28;20032;-64
2023/12/01 14:53:29;;;;;;;15.93;5.75;;;2.00;99.70;;;;;;5113950;28;20024;-65
2023/12/01 14:55:56;;;;;;;13.82;4.72;;;1.90;99.70;;;;;;5114078;28;20028;-64
2023/12/01 14:58:21;;;;;;;12.75;5.00;;;1.90;99.40;;;;;;5114928;28;20029;-65
2023/12/01 15:00:47;;;;;;;14.60;5.53;;;1.90;99.40;;;;;;5114840;28;20081;-65
2023/12/01 15:03:13;;;;;;;12.70;5.25;;;1.90;99.50;;;;;;5114939;28;20044;-64
2023/12/01 15:05:38;;;;;;;13.02;5.20;;;1.90;99.90;;;;;;5114762;28;20028;-64
2023/12/01 15:08:04;;;;;;;14.30;4.45;;;1.80;99.40;;;;;;5113743;28;20028;-64
2023/12/01 15:10:30;;;;;;;16.25;6.00;;;1.80;99.50;;;;;;5114539;28;20027;-64
2023/12/01 15:12:56;;;;;;;13.90;5.07;;;1.80;99.80;;;;;;5114214;28;20038;-65
2023/12/01 15:15:22;;;;;;;12.88;4.57;;;1.80;99.90;;;;;;5114309;28;20036;-65
2023/12/01 15:17:48;;;;;;;12.85;5.25;;;1.80;99.90;;;;;;5114626;28;20028;-64
2023/12/01 15:20:14;;;;;;;16.40;5.40;;;1.70;99.80;;;;;;5114542;28;20028;-64
2023/12/01 15:22:39;;;;;;;16.80;5.20;;;1.70;99.90;;;;;;5114562;28;20032;-64
2023/12/01 15:25:07;;;;;;;18.38;6.50;;;1.80;99.90;;;;;;5114267;28;20171;-64
2023/12/01 15:27:34;;;;;;;14.70;5.75;;;1.70;99.90;;;;;;5114506;28;20024;-64
2023/12/01 15:30:00;;;;;;;12.88;4.97;;;1.70;99.90;;;;;;5114193;28;20088;-64
2023/12/01 15:32:26;;;;;;;15.75;5.45;;;1.70;99.90;;;;;;5114339;28;20016;-65
2023/12/01 15:34:52;;;;;;;17.98;6.40;;;1.70;99.90;;;;;;5114222;28;20031;-64
2023/12/01 15:37:18;;;;;;;17.98;6.55;;;1.70;99.90;;;;;;5114230;28;20040;-65
2023/12/01 15:39:43;;;;;;;14.77;4.85;;;1.70;99.90;;;;;;5114167;28;20035;-65
2023/12/01 15:42:10;;;;;;;16.52;5.15;;;1.70;99.70;;;;;;5114181;28;20028;-64
2023/12/01 15:44:36;;;;;;;11.57;5.47;;;1.70;99.90;;;;;;5113904;28;20080;-65
2023/12/01 15:47:02;;;;;;;13.80;6.07;;;1.70;99.90;;;;;;5113269;28;20026;-64
2023/12/01 15:49:27;;;;;;;15.77;5.78;;;1.70;99.90;;;;;;5113832;28;20040;-65
2023/12/01 15:51:53;;;;;;;14.73;5.40;;;1.70;99.90;;;;;;5114066;28;20044;-64
2023/12/01 15:54:18;;;;;;;17.15;5.88;;;1.70;99.90;;;;;;5113839;28;20035;-64
2023/12/01 15:56:44;;;;;;;15.88;5.45;;;1.70;99.90;;;;;;5113884;28;20020;-64
2023/12/01 15:59:10;;;;;;;14.73;7.05;;;1.80;99.90;;;;;;5113541;28;20055;-65
2023/12/01 16:01:35;;;;;;;18.60;6.10;;;1.80;99.90;;;;;;5112786;28;20035;-65
2023/12/01 16:04:01;;;;;;;12.75;4.65;;;1.70;99.90;;;;;;5112731;28;20032;-64
2023/12/01 16:06:26;;;;;;;18.92;6.07;;;1.80;99.90;;;;;;5113717;28;20028;-64
2023/12/01 16:08:52;;;;;;;15.27;5.15;;;1.80;99.90;;;;;;5113579;28;20027;-64
2023/12/01 16:11:18;;;;;;;15.23;4.63;;;1.80;99.80;;;;;;5113516;28;20024;-64
2023/12/01 16:13:43;;;;;;;14.50;5.95;;;1.70;99.80;;;;;;5113466;28;20063;-64
2023/12/01 16:16:09;;;;;;;14.88;5.55;;;1.70;99.70;;;;;;5113612;28;20288;-64
2023/12/01 16:18:35;;;;;;;19.13;7.15;;;1.70;99.70;;;;;;5113434;28;20016;-64
2023/12/01 16:21:00;;;;;;;22.20;5.82;;;1.70;99.90;;;;;;5113376;28;20032;-64
2023/12/01 16:23:26;;;;;;;18.35;5.18;;;1.60;99.80;;;;;;5113109;28;20092;-65
2023/12/01 16:25:52;;;;;;;12.98;5.03;;;1.70;99.90;;;;;;5112992;28;20101;-64
2023/12/01 16:28:17;;;;;;;18.05;6.15;;;1.60;99.90;;;;;;5113033;28;20036;-65
2023/12/01 16:30:45;;;;;;;12.35;5.22;;;1.60;99.90;;;;;;5113071;28;20039;-65
2023/12/01 16:33:10;;;;;;;19.13;5.88;;;1.60;99.90;;;;;;5113184;28;20463;-64
2023/12/01 16:35:36;;;;;;;16.58;5.15;;;1.60;99.90;;;;;;5113055;28;20096;-65
2023/12/01 16:38:03;;;;;;;13.45;4.68;;;1.60;99.90;;;;;;5110999;28;20482;-65
2023/12/01 16:40:29;;;;;;;16.23;5.68;;;1.60;99.90;;;;;;5112747;28;20021;-64
2023/12/01 16:42:54;;;;;;;19.17;5.75;;;1.60;99.90;;;;;;5111709;28;20032;-65
2023/12/01 16:45:21;;;;;;;15.88;6.18;;;1.60;99.90;;;;;;5112616;28;20077;-64
2023/12/01 16:47:47;;;;;;;12.93;5.18;;;1.60;99.90;;;;;;5112784;28;20032;-64
2023/12/01 16:50:13;;;;;;;15.05;5.50;;;1.50;99.90;;;;;;5112962;28;20066;-64
2023/12/01 16:52:39;;;;;;;15.77;5.68;;;1.50;99.90;;;;;;5112843;28;20024;-64
2023/12/01 16:55:09;;;;;;;16.08;5.75;;;1.50;99.90;;;;;;5112745;28;20051;-64
2023/12/01 16:57:35;;;;;;;15.48;5.03;;;1.50;99.90;;;;;;5098064;28;20027;-64
2023/12/01 17:00:02;;;;;;;14.63;5.45;;;1.50;99.80;;;;;;5112357;28;20032;-64
2023/12/01 17:02:28;;;;;;;18.58;6.10;;;1.40;99.40;;;;;;5112690;28;20020;-64
2023/12/01 17:04:53;;;;;;;16.00;5.60;;;1.50;99.70;;;;;;5112517;28;20032;-64
2023/12/01 17:07:19;;;;;;;17.17;5.90;;;1.40;99.70;;;;;;5112688;28;20083;-64
2023/12/01 17:09:44;;;;;;;20.48;6.55;;;1.40;99.60;;;;;;5112673;28;20028;-64
2023/12/01 17:12:10;;;;;;;16.42;6.07;;;1.40;99.60;;;;;;5112647;28;20035;-65
2023/12/01 17:14:36;;;;;;;19.35;6.38;;;1.40;99.50;;;;;;5112557;28;20043;-63
2023/12/01 17:17:01;;;;;;;18.08;7.22;;;1.30;99.60;;;;;;5111528;28;20173;-64
2023/12/01 17:19:27;;;;;;;11.80;5.15;;;1.30;99.50;;;;;;5112548;28;20087;-63
2023/12/01 17:21:53;;;;;;;19.02;6.75;;;1.30;99.50;;;;;;5112287;28;20028;-64
2023/12/01 17:24:18;;;;;;;16.63;6.97;;;1.30;99.60;;;;;;5112087;28;20068;-63
2023/12/01 17:26:44;;;;;;;15.10;5.90;;;1.30;99.90;;;;;;5107436;28;20418;-64
2023/12/01 17:29:10;;;;;;;17.75;7.30;;;1.30;99.90;;;;;;5092047;28;20032;-64
2023/12/01 17:31:36;;;;;;;10.32;4.65;;;1.30;99.90;;;;;;5094474;28;20090;-64
2023/12/01 17:34:01;;;;;;;16.90;6.82;;;1.30;99.90;;;;;;5112309;28;20040;-63
2023/12/01 17:36:27;;;;;;;17.60;6.72;;;1.30;99.90;;;;;;5112404;28;20028;-64
2023/12/01 17:38:53;;;;;;;17.73;6.55;;;1.30;99.90;;;;;;5112421;28;20043;-64
2023/12/01 17:41:18;;;;;;;16.73;6.80;;;1.20;99.90;;;;;;5112282;28;20039;-63
2023/12/01 17:43:44;;;;;;;18.20;6.93;;;1.20;99.90;;;;;;5112145;28;20028;-65
2023/12/01 17:46:11;;;;;;;16.35;6.13;;;1.20;99.90;;;;;;5112364;28;20024;-63
2023/12/01 17:48:37;;;;;;;16.45;6.88;;;1.20;99.90;;;;;;5112268;28;20024;-63
2023/12/01 17:51:02;;;;;;;20.60;6.25;;;1.20;99.90;;;;;;5112272;28;20036;-64
2023/12/01 17:53:28;;;;;;;17.00;6.25;;;1.20;99.90;;;;;;5112094;28;20027;-64
2023/12/01 17:55:53;;;;;;;15.52;6.18;;;1.20;99.90;;;;;;5111167;28;20473;-64
2023/12/01 17:58:19;;;;;;;17.95;6.30;;;1.30;99.80;;;;;;5112107;28;20028;-64
2023/12/01 18:00:45;;;;;;;18.25;7.47;;;1.20;99.90;;;;;;5112177;28;20036;-64
2023/12/01 18:03:11;;;;;;;19.58;6.30;;;1.20;99.80;;;;;;5112165;28;20051;-63
2023/12/01 18:05:37;;;;;;;16.88;6.28;;;1.20;99.80;;;;;;5112007;28;20034;-63
2023/12/01 18:08:02;;;;;;;14.90;6.60;;;1.20;99.80;;;;;;5112110;28;20028;-65
2023/12/01 18:10:28;;;;;;;16.38;6.90;;;1.10;99.80;;;;;;5112460;28;20110;-63
2023/12/01 18:12:54;;;;;;;17.85;6.60;;;1.10;99.90;;;;;;5115963;28;20024;-64
2023/12/01 18:15:19;;;;;;;21.60;7.43;;;1.00;99.90;;;;;;5115875;28;20059;-64
2023/12/01 18:17:46;;;;;;;16.10;6.57;;;1.00;99.90;;;;;;5115988;28;20036;-63
2023/12/01 18:20:11;;;;;;;12.32;5.28;;;0.90;99.90;;;;;;5115750;28;20012;-64
2023/12/01 18:22:37;;;;;;;22.00;7.22;;;0.80;99.80;;;;;;5115741;28;20020;-64
2023/12/01 18:25:03;;;;;;;16.63;6.43;;;0.70;99.90;;;;;;5115228;28;20498;-64
2023/12/01 18:27:29;;;;;;;19.38;7.13;;;0.60;99.90;;;;;;5115599;28;20028;-63
2023/12/01 18:29:55;;;;;;;17.35;6.30;;;0.50;99.90;;;;;;5115359;28;20016;-63
2023/12/01 18:32:20;;;;;;;17.10;6.88;;;0.40;99.90;;;;;;5115573;28;20487;-63
2023/12/01 18:34:46;;;;;;;16.02;7.35;;;0.40;99.90;;;;;;5115535;28;20035;-63
2023/12/01 18:37:11;;;;;;;16.85;6.78;;;0.40;99.90;;;;;;5115263;28;20493;-63
2023/12/01 18:39:37;;;;;;;22.15;7.88;;;0.30;99.90;;;;;;5115359;28;20095;-63
2023/12/01 18:42:03;;;;;;;16.85;6.55;;;0.40;99.90;;;;;;5115465;28;20032;-63
2023/12/01 18:44:29;;;;;;;16.80;6.80;;;0.40;99.90;;;;;;5115244;28;20083;-64
2023/12/01 18:46:55;;;;;;;16.60;7.15;;;0.40;99.90;;;;;;5115322;28;20070;-64
2023/12/01 18:49:20;;;;;;;17.70;6.50;;;0.40;99.90;;;;;;5115024;28;20221;-64
2023/12/01 18:51:46;;;;;;;16.98;6.68;;;0.40;99.90;;;;;;5115192;28;20032;-64
2023/12/01 18:54:11;;;;;;;16.88;6.70;;;0.50;99.90;;;;;;5114973;28;20047;-64
2023/12/01 18:56:43;;;;;;;15.77;6.28;;;0.50;99.90;;;;;;5115106;28;20046;-64
2023/12/01 18:59:09;;;;;;;16.05;7.03;;;0.50;99.90;;;;;;5114818;28;20028;-63
2023/12/01 19:01:35;;;;;;;17.90;6.60;;;0.60;99.90;;;;;;5115012;28;20062;-65
2023/12/01 19:04:01;;;;;;;19.42;6.38;;;0.70;99.90;;;;;;5114976;28;20055;-64
2023/12/01 19:06:26;;;;;;;15.40;6.88;;;0.70;99.90;;;;;;5114906;28;20109;-63
2023/12/01 19:08:53;;;;;;;24.45;8.40;;;0.80;99.90;;;;;;5114727;28;20059;-63
2023/12/01 19:11:19;;;;;;;18.65;7.25;;;0.70;99.90;;;;;;5114773;28;20570;-64
2023/12/01 19:13:46;;;;;;;18.55;7.03;;;0.80;99.90;;;;;;5114715;28;20036;-63
2023/12/01 19:16:12;;;;;;;20.35;7.05;;;0.80;99.90;;;;;;5114681;28;20067;-64
2023/12/01 19:18:38;;;;;;;17.17;6.63;;;0.80;99.90;;;;;;5114685;28;20034;-63
2023/12/01 19:21:04;;;;;;;16.63;6.88;;;0.80;99.90;;;;;;5114546;28;20462;-63
2023/12/01 19:23:29;;;;;;;19.58;7.60;;;0.80;99.90;;;;;;5114222;28;20078;-63
2023/12/01 19:25:55;;;;;;;17.50;5.75;;;0.90;99.90;;;;;;5114376;28;20056;-63
2023/12/01 19:28:20;;;;;;;21.48;7.57;;;0.80;99.90;;;;;;5114316;28;20032;-63
2023/12/01 19:30:46;;;;;;;16.58;7.32;;;0.80;99.90;;;;;;5114453;28;20039;-63
2023/12/01 19:33:12;;;;;;;22.17;8.20;;;0.90;99.90;;;;;;5114311;28;20035;-63
2023/12/01 19:35:38;;;;;;;18.27;7.82;;;0.90;99.90;;;;;;5094020;28;20066;-64
2023/12/01 19:38:03;;;;;;;18.05;7.38;;;0.90;99.90;;;;;;5093908;28;20032;-64
2023/12/01 19:40:29;;;;;;;17.33;6.25;;;1.00;99.90;;;;;;5093946;28;20037;-63
2023/12/01 19:42:55;;;;;;;18.42;7.13;;;1.00;99.90;;;;;;5093941;28;20035;-63
2023/12/01 19:45:20;;;;;;;15.65;6.38;;;1.00;99.90;;;;;;5093763;28;20097;-63
2023/12/01 19:47:46;;;;;;;20.45;7.38;;;1.10;99.90;;;;;;5093750;28;20033;-64
2023/12/01 19:50:12;;;;;;;17.92;7.57;;;1.10;99.90;;;;;;5093647;28;20024;-64
2023/12/01 19:52:37;;;;;;;18.48;6.80;;;1.10;99.90;;;;;;5093538;28;20060;-63
2023/12/01 19:55:04;;;;;;;18.02;7.28;;;1.20;99.90;;;;;;5093477;28;20046;-63
2023/12/01 19:57:29;;;;;;;19.17;6.75;;;1.20;99.90;;;;;;5093533;28;20063;-63
2023/12/01 19:59:55;;;;;;;19.77;8.18;;;1.20;99.90;;;;;;5093198;28;20033;-64
2023/12/01 20:02:20;;;;;;;17.98;6.40;;;1.20;99.90;;;;;;5093463;28;20044;-64
2023/12/01 20:04:46;;;;;;;21.58;7.85;;;1.20;99.90;;;;;;5093371;28;20065;-64
2023/12/01 20:07:12;;;;;;;17.02;6.60;;;1.20;99.90;;;;;;5093343;28;20040;-63
2023/12/01 20:09:37;;;;;;;19.83;8.05;;;1.20;99.90;;;;;;5093321;28;20033;-64
2023/12/01 20:12:03;;;;;;;15.07;6.18;;;1.10;99.90;;;;;;5093269;28;20024;-63
2023/12/01 20:14:29;;;;;;;17.58;6.35;;;1.10;99.90;;;;;;5093259;28;20032;-63
2023/12/01 20:16:54;;;;;;;14.75;6.90;;;1.00;99.90;;;;;;5093149;28;20058;-64
2023/12/01 20:19:20;;;;;;;16.23;6.43;;;1.00;99.90;;;;;;5093133;28;20040;-64
2023/12/01 20:21:46;;;;;;;18.90;7.28;;;0.90;99.90;;;;;;5092952;28;20057;-63
2023/12/01 20:24:12;;;;;;;14.60;6.47;;;0.80;99.90;;;;;;5092685;28;20104;-64
2023/12/01 20:26:40;;;;;;;18.58;6.85;;;0.70;99.90;;;;;;5092702;28;20051;-63
2023/12/01 20:29:05;;;;;;;14.43;6.82;;;0.70;99.90;;;;;;5091514;28;20025;-63
2023/12/01 20:31:31;;;;;;;15.73;6.82;;;0.60;99.90;;;;;;5092648;28;20055;-63
2023/12/01 20:33:57;;;;;;;14.60;7.25;;;0.50;99.90;;;;;;5092311;28;20058;-63
2023/12/01 20:36:22;;;;;;;15.80;6.53;;;0.50;99.90;;;;;;5092704;28;20395;-64
2023/12/01 20:38:48;;;;;;;17.90;6.82;;;0.40;99.90;;;;;;5092677;28;20036;-63
2023/12/01 20:41:14;;;;;;;15.65;6.30;;;0.30;99.90;;;;;;5092774;28;20032;-63
2023/12/01 20:43:40;;;;;;;17.20;6.65;;;0.30;99.90;;;;;;5092672;28;20039;-63
2023/12/01 20:46:12;;;;;;;14.20;7.10;;;0.30;99.90;;;;;;5092618;28;20033;-64
2023/12/01 20:48:38;;;;;;;15.15;5.75;;;0.40;99.90;;;;;;5092518;28;20016;-63
2023/12/01 20:51:06;;;;;;;18.58;6.80;;;0.40;99.90;;;;;;5092557;28;20084;-64
2023/12/01 20:53:31;;;;;;;24.30;7.78;;;0.50;99.90;;;;;;5092509;28;20367;-64
2023/12/01 20:55:57;;;;;;;16.13;5.53;;;0.60;99.90;;;;;;5092524;28;20037;-64
2023/12/01 20:58:23;;;;;;;18.67;6.63;;;0.60;99.90;;;;;;5092326;28;20031;-63
2023/12/01 21:00:49;;;;;;;16.77;6.65;;;0.60;99.90;;;;;;5092414;28;20088;-64
2023/12/01 21:03:16;;;;;;;17.15;7.00;;;0.60;99.90;;;;;;5092432;28;20054;-63
2023/12/01 21:05:42;;;;;;;18.48;7.22;;;0.70;99.90;;;;;;5092326;28;20056;-63
2023/12/01 21:08:08;;;;;;;20.42;6.95;;;0.70;99.90;;;;;;5092415;28;20024;-63
2023/12/01 21:10:34;;;;;;;22.25;8.30;;;0.70;99.90;;;;;;5092414;28;20040;-63
2023/12/01 21:12:59;;;;;;;17.75;7.10;;;0.70;99.90;;;;;;5092421;28;20035;-63
2023/12/01 21:15:25;;;;;;;23.55;8.02;;;0.70;99.90;;;;;;5092274;28;20049;-63
2023/12/01 21:17:50;;;;;;;17.38;7.13;;;0.80;99.90;;;;;;5092204;28;20071;-64
2023/12/01 21:20:16;;;;;;;15.82;6.00;;;0.80;99.90;;;;;;5092216;28;20033;-64
2023/12/01 21:22:41;;;;;;;20.98;6.95;;;0.80;99.90;;;;;;5092239;28;20084;-63
2023/12/01 21:25:08;;;;;;;17.38;6.90;;;0.80;99.90;;;;;;5091848;28;20044;-64
2023/12/01 21:27:34;;;;;;;20.42;6.55;;;0.80;99.90;;;;;;5092215;28;20027;-63
2023/12/01 21:30:00;;;;;;;22.15;6.80;;;0.80;99.90;;;;;;5091907;28;20072;-64
2023/12/01 21:32:25;;;;;;;21.83;8.30;;;0.80;99.90;;;;;;5092046;28;20028;-65
2023/12/01 21:34:51;;;;;;;20.70;7.25;;;0.90;99.90;;;;;;5092075;28;20054;-63
2023/12/01 21:37:17;;;;;;;18.98;7.47;;;0.80;99.90;;;;;;5092064;28;20036;-63
2023/12/01 21:39:42;;;;;;;16.88;5.63;;;0.80;99.90;;;;;;5092246;28;20033;-63
2023/12/01 21:42:08;;;;;;;15.98;6.82;;;0.80;99.90;;;;;;5092115;28;20158;-64
2023/12/01 21:44:33;;;;;;;17.38;6.05;;;0.80;99.90;;;;;;5091994;28;20039;-64
2023/12/01 21:46:59;;;;;;;16.48;6.70;;;0.80;99.90;;;;;;5094962;28;20024;-63
2023/12/01 21:49:25;;;;;;;15.88;6.03;;;0.90;99.90;;;;;;5096049;28;20040;-63
2023/12/01 21:51:50;;;;;;;19.17;7.07;;;0.80;99.90;;;;;;5095889;28;20028;-63
2023/12/01 21:54:16;;;;;;;19.80;6.60;;;0.80;99.90;;;;;;5095671;28;20032;-64
2023/12/01 21:56:41;;;;;;;16.92;5.97;;;0.90;99.90;;;;;;5094751;28;20487;-64
2023/12/01 21:59:07;;;;;;;16.63;6.43;;;0.80;99.90;;;;;;5095379;28;20036;-63
2023/12/01 22:01:33;;;;;;;17.55;7.15;;;0.90;99.90;;;;;;5095796;28;20395;-64
2023/12/01 22:03:59;;;;;;;17.75;6.57;;;0.80;99.90;;;;;;5094665;28;20028;-63
2023/12/01 22:06:25;;;;;;;18.35;6.63;;;0.80;99.90;;;;;;5095470;28;20035;-63
2023/12/01 22:08:50;;;;;;;14.27;6.72;;;0.80;99.90;;;;;;5095752;28;20107;-63
2023/12/01 22:11:16;;;;;;;17.33;7.22;;;0.80;99.90;;;;;;5095800;28;20052;-63
2023/12/01 22:13:41;;;;;;;12.90;5.47;;;0.80;99.90;;;;;;5095645;28;20060;-63
2023/12/01 22:16:08;;;;;;;18.65;6.95;;;0.80;99.90;;;;;;5095507;28;20055;-64
2023/12/01 22:18:33;;;;;;;17.17;7.10;;;0.80;99.90;;;;;;5095549;28;20033;-64
2023/12/01 22:21:01;;;;;;;14.75;6.07;;;0.80;99.90;;;;;;5094296;28;20059;-64
2023/12/01 22:23:26;;;;;;;17.02;6.78;;;0.80;99.90;;;;;;5095383;28;20383;-63
2023/12/01 22:25:52;;;;;;;15.95;7.18;;;0.80;99.90;;;;;;5094961;28;20052;-63
2023/12/01 22:28:17;;;;;;;17.33;6.65;;;0.80;99.90;;;;;;5095259;28;20116;-63
2023/12/01 22:30:43;;;;;;;18.40;7.22;;;0.70;99.90;;;;;;5095095;28;20025;-64
2023/12/01 22:33:08;;;;;;;16.27;6.88;;;0.70;99.90;;;;;;5095251;28;20042;-63
2023/12/01 22:35:34;;;;;;;21.25;7.88;;;0.70;99.90;;;;;;5095213;28;20032;-63
2023/12/01 22:38:00;;;;;;;21.08;7.65;;;0.70;99.90;;;;;;5095066;28;20073;-64
2023/12/01 22:40:25;;;;;;;16.13;7.15;;;0.60;99.90;;;;;;5094965;28;20092;-64
2023/12/01 22:42:51;;;;;;;17.70;7.43;;;0.70;99.90;;;;;;5095022;28;20032;-63
2023/12/01 22:45:16;;;;;;;18.10;7.18;;;0.70;99.90;;;;;;5094894;28;20047;-65
2023/12/01 22:47:42;;;;;;;18.27;6.93;;;0.80;99.90;;;;;;5095002;28;20086;-63
2023/12/01 22:50:08;;;;;;;19.27;7.55;;;0.80;99.90;;;;;;5094852;28;20028;-64
2023/12/01 22:52:34;;;;;;;17.70;7.43;;;0.70;99.90;;;;;;5094947;28;20035;-63
2023/12/01 22:54:59;;;;;;;16.23;6.97;;;0.70;99.90;;;;;;5094825;28;20032;-63
2023/12/01 22:57:25;;;;;;;15.45;6.55;;;0.80;99.90;;;;;;5094470;28;20033;-63
2023/12/01 22:59:51;;;;;;;14.93;5.72;;;0.80;99.90;;;;;;5094581;28;20082;-63
2023/12/01 23:02:17;;;;;;;14.73;6.45;;;0.90;99.90;;;;;;5094614;28;20040;-64
2023/12/01 23:04:42;;;;;;;16.17;6.28;;;0.80;99.90;;;;;;5094521;28;20039;-64
2023/12/01 23:07:08;;;;;;;12.93;5.75;;;0.80;99.90;;;;;;5094652;28;20017;-63
2023/12/01 23:09:34;;;;;;;20.88;7.20;;;0.90;99.90;;;;;;5093633;28;20033;-63
2023/12/01 23:11:59;;;;;;;17.33;6.80;;;0.80;99.90;;;;;;5094548;28;20029;-63
2023/12/01 23:14:25;;;;;;;16.38;6.70;;;0.80;99.90;;;;;;5094485;28;20033;-64
2023/12/01 23:16:50;;;;;;;21.15;7.00;;;0.80;99.90;;;;;;5093409;28;20035;-63
2023/12/01 23:19:16;;;;;;;17.35;6.30;;;0.80;99.90;;;;;;5094397;28;20033;-63
2023/12/01 23:21:42;;;;;;;18.80;6.45;;;0.80;99.90;;;;;;5094333;28;20021;-64
2023/12/01 23:24:08;;;;;;;22.17;8.00;;;0.80;99.90;;;;;;5094049;28;20383;-63
2023/12/01 23:26:34;;;;;;;15.55;7.32;;;0.80;99.90;;;;;;5092966;28;20104;-63
2023/12/01 23:28:59;;;;;;;22.70;7.60;;;0.80;99.90;;;;;;5093929;28;20043;-63
2023/12/01 23:31:25;;;;;;;19.17;7.82;;;0.80;99.90;;;;;;5094161;28;20032;-65
2023/12/01 23:33:50;;;;;;;15.68;7.22;;;0.80;99.90;;;;;;5094123;28;20034;-63
2023/12/01 23:36:16;;;;;;;14.75;6.68;;;0.80;99.90;;;;;;5094109;28;20036;-63
2023/12/01 23:38:42;;;;;;;18.63;7.80;;;0.90;99.90;;;;;;5094067;28;20402;-64
2023/12/01 23:41:07;;;;;;;20.35;8.15;;;0.90;99.90;;;;;;5094083;28;20028;-63
2023/12/01 23:43:33;;;;;;;20.67;7.63;;;0.80;99.90;;;;;;5093887;28;20089;-63
2023/12/01 23:45:58;;;;;;;19.95;7.97;;;0.80;99.90;;;;;;5093780;28;20036;-63
2023/12/01 23:48:24;;;;;;;17.90;7.35;;;0.80;99.90;;;;;;5093841;28;20028;-64
2023/12/01 23:50:50;;;;;;;19.65;6.95;;;0.80;99.90;;;;;;5093794;28;20040;-63
2023/12/01 23:53:15;;;;;;;19.20;6.65;;;0.80;99.90;;;;;;5093627;28;20052;-64
2023/12/01 23:55:41;;;;;;;17.50;6.82;;;0.80;99.90;;;;;;5093544;28;20080;-63
2023/12/01 23:58:07;;;;;;;17.88;7.47;;;0.80;99.90;;;;;;5093529;28;20039;-63
